createdAt,value
2023-01-29T00:01:04.589Z,43.95
2023-01-29T00:06:09.764Z,43.40
2023-01-29T00:11:14.604Z,44.16
2023-01-29T00:16:17.985Z,43.74
2023-01-29T00:21:23.002Z,43.48
2023-01-29T00:26:28.428Z,42.75
2023-01-29T00:31:34.957Z,42.17
2023-01-29T00:36:38.291Z,42.05
2023-01-29T00:42:00.336Z,43.10
2023-01-29T00:47:04.607Z,43.13
2023-01-29T00:52:26.282Z,43.86
2023-01-29T00:57:32.478Z,43.95
2023-01-29T01:02:53.596Z,43.53
2023-01-29T01:07:58.342Z,43.10
2023-01-29T01:13:04.684Z,42.73
2023-01-29T01:18:08.517Z,42.54
2023-01-29T01:23:12.168Z,42.98
2023-01-29T01:28:17.041Z,42.39
2023-01-29T01:33:20.481Z,42.59
2023-01-29T01:38:23.857Z,42.76
2023-01-29T01:43:50.972Z,42.82
2023-01-29T01:48:57.315Z,42.90
2023-01-29T01:54:03.851Z,42.32
2023-01-29T01:59:10.963Z,42.51
2023-01-29T02:04:37.248Z,42.78
2023-01-29T02:09:43.456Z,43.37
2023-01-29T02:14:48.383Z,44.74
2023-01-29T02:19:58.321Z,44.37
2023-01-29T02:25:09.649Z,43.70
2023-01-29T02:30:19.150Z,43.52
2023-01-29T02:35:29.184Z,44.08
2023-01-29T02:40:36.964Z,44.02
2023-01-29T02:45:47.090Z,43.47
2023-01-29T02:50:55.246Z,44.88
2023-01-29T02:56:01.239Z,44.53
2023-01-29T03:01:09.468Z,44.07
2023-01-29T03:06:18.213Z,45.43
2023-01-29T03:11:22.458Z,45.79
2023-01-29T03:16:33.024Z,46.37
2023-01-29T03:21:55.256Z,45.28
2023-01-29T03:27:17.842Z,44.77
2023-01-29T03:32:26.531Z,44.86
2023-01-29T03:37:34.840Z,45.52
2023-01-29T03:42:52.111Z,43.94
2023-01-29T03:48:01.981Z,43.57
2023-01-29T03:53:10.415Z,42.56
2023-01-29T03:58:22.295Z,44.47
2023-01-29T04:03:33.148Z,44.89
2023-01-29T04:08:46.949Z,44.39
2023-01-29T04:13:51.106Z,44.28
2023-01-29T04:18:57.145Z,43.66
2023-01-29T04:24:08.617Z,44.46
2023-01-29T04:29:22.962Z,42.99
2023-01-29T04:34:35.548Z,42.64
2023-01-29T04:39:45.910Z,42.61
2023-01-29T04:44:52.014Z,42.60
2023-01-29T04:50:04.254Z,43.32
2023-01-29T04:55:11.601Z,42.81
2023-01-29T05:00:19.460Z,44.16
2023-01-29T05:05:24.283Z,43.68
2023-01-29T05:10:28.182Z,44.84
2023-01-29T05:15:44.109Z,44.81
2023-01-29T05:20:49.288Z,44.25
2023-01-29T05:25:52.852Z,44.29
2023-01-29T05:30:57.521Z,43.43
2023-01-29T05:36:02.354Z,43.89
2023-01-29T05:41:05.988Z,44.49
2023-01-29T05:46:09.428Z,44.05
2023-01-29T05:51:14.118Z,44.63
2023-01-29T05:56:17.681Z,43.29
2023-01-29T06:01:23.384Z,41.88
2023-01-29T06:06:28.324Z,42.93
2023-01-29T06:11:31.783Z,43.35
2023-01-29T06:16:35.280Z,41.99
2023-01-29T06:21:40.015Z,43.73
2023-01-29T06:26:43.386Z,43.24
2023-01-29T06:31:46.881Z,42.13
2023-01-29T06:36:51.756Z,42.92
2023-01-29T06:41:55.231Z,42.00
2023-01-29T06:46:58.957Z,43.23
2023-01-29T06:52:03.653Z,43.26
2023-01-29T06:57:07.075Z,42.50
2023-01-29T07:02:10.527Z,43.56
2023-01-29T07:07:15.335Z,43.59
2023-01-29T07:12:18.699Z,44.18
2023-01-29T07:17:22.081Z,43.60
2023-01-29T07:22:26.843Z,44.69
2023-01-29T07:27:30.231Z,43.88
2023-01-29T07:32:33.637Z,44.02
2023-01-29T07:37:38.442Z,46.05
2023-01-29T07:42:44.010Z,45.86
2023-01-29T07:47:53.206Z,46.15
2023-01-29T07:52:58.065Z,46.35
2023-01-29T07:58:22.056Z,46.61
2023-01-29T08:03:25.421Z,45.69
2023-01-29T08:08:30.266Z,47.05
2023-01-29T08:13:33.998Z,48.00
2023-01-29T08:18:38.016Z,47.40
2023-01-29T08:23:42.762Z,47.41
2023-01-29T08:28:46.126Z,46.86
2023-01-29T08:33:49.889Z,46.15
2023-01-29T08:38:57.458Z,45.71
2023-01-29T08:44:02.315Z,45.81
2023-01-29T08:49:05.665Z,47.89
2023-01-29T08:54:10.374Z,45.77
2023-01-29T08:59:14.323Z,44.06
2023-01-29T09:04:17.755Z,45.19
2023-01-29T09:09:22.544Z,44.40
2023-01-29T09:14:27.559Z,44.48
2023-01-29T09:19:30.906Z,45.28
2023-01-29T09:24:35.854Z,45.79
2023-01-29T09:29:39.226Z,45.20
2023-01-29T09:34:42.642Z,45.13
2023-01-29T09:39:47.846Z,45.31
2023-01-29T09:44:56.627Z,45.66
2023-01-29T09:50:02.606Z,46.87
2023-01-29T09:55:13.662Z,45.08
2023-01-29T10:00:21.517Z,45.03
2023-01-29T10:05:33.818Z,45.56
2023-01-29T10:10:49.045Z,44.26
2023-01-29T10:16:04.247Z,43.56
2023-01-29T10:21:18.556Z,43.87
2023-01-29T10:26:25.850Z,44.22
2023-01-29T10:31:32.668Z,45.21
2023-01-29T10:36:38.210Z,44.73
2023-01-29T10:41:54.227Z,45.30
2023-01-29T10:47:19.059Z,42.67
2023-01-29T10:52:36.512Z,41.79
2023-01-29T10:57:53.800Z,44.36
2023-01-29T11:02:57.261Z,44.23
2023-01-29T11:08:05.150Z,44.38
2023-01-29T11:13:15.202Z,43.42
2023-01-29T11:18:18.704Z,44.83
2023-01-29T11:23:27.121Z,45.01
2023-01-29T11:28:39.176Z,44.79
2023-01-29T11:33:42.660Z,42.96
2023-01-29T11:38:46.008Z,43.44
2023-01-29T11:43:50.739Z,43.76
2023-01-29T11:48:59.402Z,41.05
2023-01-29T11:54:16.225Z,43.97
2023-01-29T11:59:30.657Z,42.49
2023-01-29T12:04:34.045Z,43.02
2023-01-29T12:09:39.334Z,41.26
2023-01-29T12:14:45.150Z,42.25
2023-01-29T12:19:52.095Z,42.42
2023-01-29T12:24:58.605Z,41.50
2023-01-29T12:30:07.167Z,44.97
2023-01-29T12:35:16.727Z,44.12
2023-01-29T12:40:20.703Z,43.13
2023-01-29T12:45:28.154Z,42.91
2023-01-29T12:50:34.747Z,43.92
2023-01-29T12:55:40.618Z,42.53
2023-01-29T13:00:47.930Z,43.11
2023-01-29T13:05:53.060Z,42.69
2023-01-29T13:11:01.491Z,42.01
2023-01-29T13:16:08.775Z,43.15
2023-01-29T13:21:14.930Z,43.84
2023-01-29T13:26:19.733Z,43.23
2023-01-29T13:31:31.462Z,43.01
2023-01-29T13:36:35.838Z,43.64
2023-01-29T13:41:42.403Z,44.03
2023-01-29T13:46:52.683Z,43.09
2023-01-29T13:51:56.207Z,45.69
2023-01-29T13:57:02.051Z,44.83
2023-01-29T14:02:21.676Z,45.72
2023-01-29T14:07:50.844Z,44.54
2023-01-29T14:12:55.507Z,45.05
2023-01-29T14:18:07.285Z,45.75
2023-01-29T14:23:29.567Z,46.80
2023-01-29T14:28:34.496Z,46.23
2023-01-29T14:33:43.329Z,45.47
2023-01-29T14:38:50.344Z,45.23
2023-01-29T14:44:44.686Z,45.47
2023-01-29T14:49:54.842Z,44.96
2023-01-29T14:55:02.001Z,44.05
2023-01-29T15:00:07.407Z,44.26
2023-01-29T15:05:14.879Z,44.89
2023-01-29T15:10:23.228Z,45.82
2023-01-29T15:15:33.899Z,46.76
2023-01-29T15:20:40.672Z,47.46
2023-01-29T15:25:49.732Z,50.36
2023-01-29T15:30:55.510Z,47.42
2023-01-29T15:36:07.384Z,47.28
2023-01-29T15:41:18.923Z,49.26
2023-01-29T15:46:26.552Z,48.88
2023-01-29T15:51:32.661Z,50.45
2023-01-29T15:56:39.548Z,49.96
2023-01-29T16:01:43.218Z,48.70
2023-01-29T16:06:48.364Z,51.72
2023-01-29T16:11:52.919Z,49.81
2023-01-29T16:16:56.498Z,51.57
2023-01-29T16:22:02.492Z,50.80
2023-01-29T16:27:11.735Z,51.22
2023-01-29T16:32:16.302Z,51.18
2023-01-29T16:37:23.702Z,51.71
2023-01-29T16:42:31.293Z,51.05
2023-01-29T16:47:36.788Z,51.39
2023-01-29T16:52:57.675Z,50.60
2023-01-29T16:58:04.694Z,50.37
2023-01-29T17:03:08.562Z,49.20
2023-01-29T17:08:24.018Z,50.71
2023-01-29T17:13:45.639Z,47.94
2023-01-29T17:18:49.407Z,50.38
2023-01-29T17:23:54.460Z,50.68
2023-01-29T17:28:57.909Z,52.40
2023-01-29T17:34:01.560Z,51.56
2023-01-29T17:39:13.498Z,50.31
2023-01-29T17:44:16.874Z,50.82
2023-01-29T17:49:24.114Z,50.22
2023-01-29T17:54:28.923Z,51.08
2023-01-29T17:59:34.208Z,50.56
2023-01-29T18:04:38.652Z,50.35
2023-01-29T18:09:43.660Z,49.41
2023-01-29T18:14:47.160Z,49.83
2023-01-29T18:19:50.906Z,48.60
2023-01-29T18:24:56.329Z,50.79
2023-01-29T18:29:59.750Z,49.08
2023-01-29T18:35:03.238Z,48.73
2023-01-29T18:40:09.884Z,50.17
2023-01-29T18:45:13.858Z,50.99
2023-01-29T18:50:17.870Z,50.23
2023-01-29T18:55:23.328Z,51.02
2023-01-29T19:00:26.738Z,51.67
2023-01-29T19:05:30.163Z,52.44
2023-01-29T19:10:35.476Z,52.66
2023-01-29T19:15:42.813Z,51.71
2023-01-29T19:20:46.192Z,52.13
2023-01-29T19:25:51.239Z,52.25
2023-01-29T19:30:57.688Z,52.86
2023-01-29T19:36:01.644Z,51.68
2023-01-29T19:41:06.741Z,51.84
2023-01-29T19:46:11.337Z,50.79
2023-01-29T19:51:14.707Z,53.42
2023-01-29T19:56:19.861Z,52.71
2023-01-29T20:01:24.584Z,52.66
2023-01-29T20:06:30.893Z,50.95
2023-01-29T20:11:47.291Z,51.71
2023-01-29T20:16:50.881Z,52.40
2023-01-29T20:21:54.501Z,53.81
2023-01-29T20:26:59.825Z,52.90
2023-01-29T20:32:04.171Z,51.53
2023-01-29T20:37:07.674Z,54.33
2023-01-29T20:42:12.646Z,53.70
2023-01-29T20:47:16.077Z,52.03
2023-01-29T20:52:19.572Z,53.25
2023-01-29T20:57:24.851Z,51.71
2023-01-29T21:02:28.244Z,52.11
2023-01-29T21:07:31.612Z,53.23
2023-01-29T21:12:36.465Z,51.82
2023-01-29T21:17:40.038Z,53.34
2023-01-29T21:22:43.982Z,51.55
2023-01-29T21:27:48.850Z,49.79
2023-01-29T21:32:52.338Z,51.94
2023-01-29T21:37:55.973Z,51.28
2023-01-29T21:43:12.713Z,49.10
2023-01-29T21:48:16.124Z,49.38
2023-01-29T21:53:19.890Z,50.32
2023-01-29T21:58:24.793Z,49.96
2023-01-29T22:03:28.331Z,51.75
2023-01-29T22:08:32.011Z,51.60
2023-01-29T22:13:36.931Z,51.85
2023-01-29T22:18:40.301Z,51.02
2023-01-29T22:23:43.685Z,50.13
2023-01-29T22:28:48.451Z,52.06
2023-01-29T22:33:53.214Z,51.56
2023-01-29T22:38:56.531Z,50.78
2023-01-29T22:44:01.324Z,51.18
2023-01-29T22:49:04.696Z,50.75
2023-01-29T22:54:08.147Z,51.15
2023-01-29T22:59:12.917Z,50.38
2023-01-29T23:04:16.488Z,50.81
2023-01-29T23:09:19.865Z,51.14
2023-01-29T23:14:24.712Z,53.10
2023-01-29T23:19:29.957Z,52.48
2023-01-29T23:24:33.359Z,53.26
2023-01-29T23:29:38.175Z,50.61
2023-01-29T23:34:41.538Z,52.04
2023-01-29T23:39:44.923Z,51.52
2023-01-29T23:44:49.820Z,51.50
2023-01-29T23:49:53.517Z,52.25
2023-01-29T23:54:56.856Z,50.98
